Shoukeimaruno.3 — JI3587 — position and weather

sailwx.info

Track history (hours):
 
Tides and Currents Weather Stations Pressure Air Temp Water Temp Dewpoint Dewpoint Depression Visibility Wind Speed Wind Dir Waves Ship Positions

Shoukeimaruno.3

Last reported at 2016-Sep-24 22:33 UTC. Time now 2016-Sep-27 03:42 UTC.
Position N 34°59' E 140°07'.

Length 77 m; draft 3.8 m.

Type: Cargo ship. MMSI: 431300325.

Date/timePositionNaut miles runAvg speedWind from/ knotsBaromVisibWave heightAir tempDewpointWater temp
2016-Sep-24 22:33N 34°59' E 140°07'1711.2
2016-Sep-24 21:04N 34°54' E 139°48'1711.5
2016-Sep-24 19:33N 35°11' E 139°46'1211.9
2016-Sep-24 18:33N 35°22' E 139°42'4 3.6
2016-Sep-24 17:31N 35°24' E 139°37'0 0.0
2016-Sep-24 16:31N 35°24' E 139°37'0 0.0
2016-Sep-24 14:31N 35°24' E 139°37'2 1.2
2016-Sep-24 12:31N 35°23' E 139°40'0 0.0
2016-Sep-24 10:31N 35°23' E 139°40'0 0.0
2016-Sep-24 09:31N 35°23' E 139°40'0 0.0
2016-Sep-24 03:31N 35°23' E 139°40'0 0.0
2016-Sep-24 02:31N 35°23' E 139°40'0 0.0
2016-Sep-24 01:31N 35°23' E 139°40'0 0.0
2016-Sep-24 00:31N 35°23' E 139°40'34 6.4
2016-Sep-23 19:16N 34°52' E 139°57'2411.3
2016-Sep-23 17:11N 35°05' E 140°21'6 9.9
2016-Sep-23 16:33N 35°08' E 140°27'1211.6
2016-Sep-23 15:33N 35°17' E 140°36'2411.9
2016-Sep-23 13:33N 35°37' E 140°52'  
2016-Sep-18 01:29N 35°02' E 140°14'1312.8
2016-Sep-18 00:30N 34°54' E 140°02'3712.4
2016-Sep-17 21:33N 34°39' E 139°21'  
Track history (hours):
 
Tides and Currents Weather Stations Pressure Air Temp Water Temp Dewpoint Dewpoint Depression Visibility Wind Speed Wind Dir Waves Ship Positions

Shoukeimaruno.3

Last reported at 2016-Sep-24 22:33 UTC. Time now 2016-Sep-27 03:42 UTC.
Position N 34°59' E 140°07'.

Length 77 m; draft 3.8 m.

Type: Cargo ship. MMSI: 431300325.

Date/timePositionNaut miles runAvg speedWind from/ knotsBaromVisibWave heightAir tempDewpointWater temp
2016-Sep-24 22:33N 34°59' E 140°07'1711.2
2016-Sep-24 21:04N 34°54' E 139°48'1711.5
2016-Sep-24 19:33N 35°11' E 139°46'1211.9
2016-Sep-24 18:33N 35°22' E 139°42'4 3.6
2016-Sep-24 17:31N 35°24' E 139°37'0 0.0
2016-Sep-24 16:31N 35°24' E 139°37'0 0.0
2016-Sep-24 14:31N 35°24' E 139°37'2 1.2
2016-Sep-24 12:31N 35°23' E 139°40'0 0.0
2016-Sep-24 10:31N 35°23' E 139°40'0 0.0
2016-Sep-24 09:31N 35°23' E 139°40'0 0.0
2016-Sep-24 03:31N 35°23' E 139°40'0 0.0
2016-Sep-24 02:31N 35°23' E 139°40'0 0.0
2016-Sep-24 01:31N 35°23' E 139°40'0 0.0
2016-Sep-24 00:31N 35°23' E 139°40'34 6.4
2016-Sep-23 19:16N 34°52' E 139°57'2411.3
2016-Sep-23 17:11N 35°05' E 140°21'6 9.9
2016-Sep-23 16:33N 35°08' E 140°27'1211.6
2016-Sep-23 15:33N 35°17' E 140°36'2411.9
2016-Sep-23 13:33N 35°37' E 140°52'  
2016-Sep-18 01:29N 35°02' E 140°14'1312.8
2016-Sep-18 00:30N 34°54' E 140°02'3712.4
2016-Sep-17 21:33N 34°39' E 139°21'  

Dump ship's entire track history